sensor_id;sensor_type;location;lat;lon;timestamp;P1;durP1;ratioP1;P2;durP2;ratioP2
3343;SDS011;1685;53.104;8.228;2023-12-04T00:00:49;25.70;;;14.30;;
3343;SDS011;1685;53.104;8.228;2023-12-04T00:03:17;19.50;;;12.73;;
3343;SDS011;1685;53.104;8.228;2023-12-04T00:05:45;25.70;;;14.67;;
3343;SDS011;1685;53.104;8.228;2023-12-04T00:08:12;26.53;;;15.47;;
3343;SDS011;1685;53.104;8.228;2023-12-04T00:10:39;25.80;;;13.90;;
3343;SDS011;1685;53.104;8.228;2023-12-04T00:13:06;21.87;;;14.07;;
3343;SDS011;1685;53.104;8.228;2023-12-04T00:15:33;25.20;;;14.67;;
3343;SDS011;1685;53.104;8.228;2023-12-04T00:18:00;26.57;;;15.30;;
3343;SDS011;1685;53.104;8.228;2023-12-04T00:20:28;21.43;;;13.97;;
3343;SDS011;1685;53.104;8.228;2023-12-04T00:22:56;22.93;;;13.00;;
3343;SDS011;1685;53.104;8.228;2023-12-04T00:25:23;23.47;;;13.80;;
3343;SDS011;1685;53.104;8.228;2023-12-04T00:27:50;33.97;;;16.83;;
3343;SDS011;1685;53.104;8.228;2023-12-04T00:30:17;26.17;;;14.70;;
3343;SDS011;1685;53.104;8.228;2023-12-04T00:32:44;24.70;;;14.70;;
3343;SDS011;1685;53.104;8.228;2023-12-04T00:35:11;28.70;;;15.73;;
3343;SDS011;1685;53.104;8.228;2023-12-04T00:37:38;26.83;;;14.53;;
3343;SDS011;1685;53.104;8.228;2023-12-04T00:40:07;27.50;;;14.10;;
3343;SDS011;1685;53.104;8.228;2023-12-04T00:42:35;29.07;;;15.10;;
3343;SDS011;1685;53.104;8.228;2023-12-04T00:45:02;32.67;;;16.30;;
3343;SDS011;1685;53.104;8.228;2023-12-04T00:47:29;22.50;;;13.93;;
3343;SDS011;1685;53.104;8.228;2023-12-04T00:49:56;25.90;;;15.50;;
3343;SDS011;1685;53.104;8.228;2023-12-04T00:52:24;27.90;;;15.30;;
3343;SDS011;1685;53.104;8.228;2023-12-04T00:54:51;25.60;;;13.90;;
3343;SDS011;1685;53.104;8.228;2023-12-04T00:57:20;25.53;;;13.60;;
3343;SDS011;1685;53.104;8.228;2023-12-04T00:59:46;26.67;;;14.77;;
3343;SDS011;1685;53.104;8.228;2023-12-04T01:02:14;31.33;;;15.03;;
3343;SDS011;1685;53.104;8.228;2023-12-04T01:04:41;40.23;;;18.57;;
3343;SDS011;1685;53.104;8.228;2023-12-04T01:07:08;26.37;;;16.13;;
3343;SDS011;1685;53.104;8.228;2023-12-04T01:09:35;27.37;;;14.47;;
3343;SDS011;1685;53.104;8.228;2023-12-04T01:12:02;26.37;;;15.00;;
3343;SDS011;1685;53.104;8.228;2023-12-04T01:14:31;25.77;;;15.50;;
3343;SDS011;1685;53.104;8.228;2023-12-04T01:16:59;39.60;;;15.80;;
3343;SDS011;1685;53.104;8.228;2023-12-04T01:19:26;38.30;;;17.67;;
3343;SDS011;1685;53.104;8.228;2023-12-04T01:21:53;28.20;;;14.53;;
3343;SDS011;1685;53.104;8.228;2023-12-04T01:24:20;29.20;;;16.90;;
3343;SDS011;1685;53.104;8.228;2023-12-04T01:26:47;27.27;;;15.70;;
3343;SDS011;1685;53.104;8.228;2023-12-04T01:29:14;32.60;;;16.43;;
3343;SDS011;1685;53.104;8.228;2023-12-04T01:31:43;25.80;;;15.37;;
3343;SDS011;1685;53.104;8.228;2023-12-04T01:34:09;33.83;;;18.13;;
3343;SDS011;1685;53.104;8.228;2023-12-04T01:36:39;29.77;;;16.47;;
3343;SDS011;1685;53.104;8.228;2023-12-04T01:39:05;28.00;;;14.93;;
3343;SDS011;1685;53.104;8.228;2023-12-04T01:41:32;27.90;;;16.60;;
3343;SDS011;1685;53.104;8.228;2023-12-04T01:43:59;24.47;;;14.70;;
3343;SDS011;1685;53.104;8.228;2023-12-04T01:46:27;28.33;;;15.17;;
3343;SDS011;1685;53.104;8.228;2023-12-04T01:48:55;25.73;;;15.27;;
3343;SDS011;1685;53.104;8.228;2023-12-04T01:51:22;27.50;;;15.17;;
3343;SDS011;1685;53.104;8.228;2023-12-04T01:53:50;29.47;;;16.50;;
3343;SDS011;1685;53.104;8.228;2023-12-04T01:56:18;28.30;;;16.60;;
3343;SDS011;1685;53.104;8.228;2023-12-04T01:58:46;27.53;;;14.07;;
3343;SDS011;1685;53.104;8.228;2023-12-04T02:01:13;25.70;;;14.93;;
3343;SDS011;1685;53.104;8.228;2023-12-04T02:03:41;30.97;;;15.90;;
3343;SDS011;1685;53.104;8.228;2023-12-04T02:06:10;30.67;;;17.43;;
3343;SDS011;1685;53.104;8.228;2023-12-04T02:08:38;35.47;;;16.20;;
3343;SDS011;1685;53.104;8.228;2023-12-04T02:11:07;35.50;;;15.93;;
3343;SDS011;1685;53.104;8.228;2023-12-04T02:13:35;32.07;;;17.83;;
3343;SDS011;1685;53.104;8.228;2023-12-04T02:16:02;28.80;;;15.33;;
3343;SDS011;1685;53.104;8.228;2023-12-04T02:18:32;28.77;;;15.80;;
3343;SDS011;1685;53.104;8.228;2023-12-04T02:21:00;27.50;;;14.50;;
3343;SDS011;1685;53.104;8.228;2023-12-04T02:23:28;29.00;;;16.20;;
3343;SDS011;1685;53.104;8.228;2023-12-04T02:25:58;36.33;;;17.03;;
3343;SDS011;1685;53.104;8.228;2023-12-04T02:28:28;34.67;;;15.73;;
3343;SDS011;1685;53.104;8.228;2023-12-04T02:30:58;33.03;;;16.30;;
3343;SDS011;1685;53.104;8.228;2023-12-04T02:33:27;25.23;;;13.43;;
3343;SDS011;1685;53.104;8.228;2023-12-04T02:35:55;32.67;;;16.60;;
3343;SDS011;1685;53.104;8.228;2023-12-04T02:38:24;38.77;;;16.90;;
3343;SDS011;1685;53.104;8.228;2023-12-04T02:40:52;35.63;;;17.00;;
3343;SDS011;1685;53.104;8.228;2023-12-04T02:43:21;31.60;;;16.33;;
3343;SDS011;1685;53.104;8.228;2023-12-04T02:45:48;27.43;;;15.40;;
3343;SDS011;1685;53.104;8.228;2023-12-04T02:48:15;31.10;;;14.80;;
3343;SDS011;1685;53.104;8.228;2023-12-04T02:50:42;26.03;;;14.30;;
3343;SDS011;1685;53.104;8.228;2023-12-04T02:53:09;31.70;;;15.90;;
3343;SDS011;1685;53.104;8.228;2023-12-04T02:55:36;33.10;;;16.03;;
3343;SDS011;1685;53.104;8.228;2023-12-04T02:58:03;31.80;;;15.63;;
3343;SDS011;1685;53.104;8.228;2023-12-04T03:00:32;32.23;;;16.70;;
3343;SDS011;1685;53.104;8.228;2023-12-04T03:02:59;30.60;;;14.60;;
3343;SDS011;1685;53.104;8.228;2023-12-04T03:05:26;26.40;;;15.07;;
3343;SDS011;1685;53.104;8.228;2023-12-04T03:07:53;29.63;;;15.87;;
3343;SDS011;1685;53.104;8.228;2023-12-04T03:10:20;28.53;;;15.70;;
3343;SDS011;1685;53.104;8.228;2023-12-04T03:12:47;29.50;;;16.73;;
3343;SDS011;1685;53.104;8.228;2023-12-04T03:15:14;25.70;;;14.73;;
3343;SDS011;1685;53.104;8.228;2023-12-04T03:17:43;29.33;;;15.37;;
3343;SDS011;1685;53.104;8.228;2023-12-04T03:20:10;31.93;;;14.80;;
3343;SDS011;1685;53.104;8.228;2023-12-04T03:22:37;32.50;;;15.80;;
3343;SDS011;1685;53.104;8.228;2023-12-04T03:25:05;29.70;;;15.77;;
3343;SDS011;1685;53.104;8.228;2023-12-04T03:27:32;27.00;;;14.00;;
3343;SDS011;1685;53.104;8.228;2023-12-04T03:29:59;28.27;;;16.47;;
3343;SDS011;1685;53.104;8.228;2023-12-04T03:32:27;32.93;;;15.23;;
3343;SDS011;1685;53.104;8.228;2023-12-04T03:34:56;25.93;;;14.37;;
3343;SDS011;1685;53.104;8.228;2023-12-04T03:37:23;33.40;;;15.50;;
3343;SDS011;1685;53.104;8.228;2023-12-04T03:39:50;30.80;;;16.07;;
3343;SDS011;1685;53.104;8.228;2023-12-04T03:42:17;31.07;;;14.40;;
3343;SDS011;1685;53.104;8.228;2023-12-04T03:44:44;34.13;;;15.20;;
3343;SDS011;1685;53.104;8.228;2023-12-04T03:47:11;33.30;;;15.03;;
3343;SDS011;1685;53.104;8.228;2023-12-04T03:49:38;30.60;;;15.70;;
3343;SDS011;1685;53.104;8.228;2023-12-04T03:52:07;37.53;;;16.10;;
3343;SDS011;1685;53.104;8.228;2023-12-04T03:54:33;28.80;;;15.27;;
3343;SDS011;1685;53.104;8.228;2023-12-04T03:57:01;26.83;;;14.80;;
3343;SDS011;1685;53.104;8.228;2023-12-04T03:59:28;33.40;;;15.00;;
3343;SDS011;1685;53.104;8.228;2023-12-04T04:01:55;28.37;;;15.33;;
3343;SDS011;1685;53.104;8.228;2023-12-04T04:04:22;38.43;;;18.00;;
3343;SDS011;1685;53.104;8.228;2023-12-04T04:06:49;30.87;;;15.93;;
3343;SDS011;1685;53.104;8.228;2023-12-04T04:09:18;29.40;;;14.90;;
3343;SDS011;1685;53.104;8.228;2023-12-04T04:11:45;28.70;;;16.33;;
3343;SDS011;1685;53.104;8.228;2023-12-04T04:14:12;29.27;;;16.50;;
3343;SDS011;1685;53.104;8.228;2023-12-04T04:16:40;31.43;;;15.83;;
3343;SDS011;1685;53.104;8.228;2023-12-04T04:19:07;41.33;;;16.33;;
3343;SDS011;1685;53.104;8.228;2023-12-04T04:21:34;35.83;;;15.70;;
3343;SDS011;1685;53.104;8.228;2023-12-04T04:24:01;34.37;;;17.07;;
3343;SDS011;1685;53.104;8.228;2023-12-04T04:26:30;34.20;;;16.40;;
3343;SDS011;1685;53.104;8.228;2023-12-04T04:28:56;34.70;;;17.00;;
3343;SDS011;1685;53.104;8.228;2023-12-04T04:31:24;31.83;;;16.00;;
3343;SDS011;1685;53.104;8.228;2023-12-04T04:33:51;31.30;;;16.93;;
3343;SDS011;1685;53.104;8.228;2023-12-04T04:36:18;33.50;;;17.17;;
3343;SDS011;1685;53.104;8.228;2023-12-04T04:38:45;32.93;;;16.40;;
3343;SDS011;1685;53.104;8.228;2023-12-04T04:41:13;31.37;;;17.00;;
3343;SDS011;1685;53.104;8.228;2023-12-04T04:43:42;33.07;;;17.00;;
3343;SDS011;1685;53.104;8.228;2023-12-04T04:46:09;35.63;;;16.33;;
3343;SDS011;1685;53.104;8.228;2023-12-04T04:48:36;35.73;;;16.10;;
3343;SDS011;1685;53.104;8.228;2023-12-04T04:51:03;33.30;;;18.03;;
3343;SDS011;1685;53.104;8.228;2023-12-04T04:53:30;34.60;;;17.20;;
3343;SDS011;1685;53.104;8.228;2023-12-04T04:55:58;31.57;;;15.80;;
3343;SDS011;1685;53.104;8.228;2023-12-04T04:58:25;33.40;;;16.80;;
3343;SDS011;1685;53.104;8.228;2023-12-04T05:00:53;35.50;;;17.60;;
3343;SDS011;1685;53.104;8.228;2023-12-04T05:03:20;42.47;;;18.63;;
3343;SDS011;1685;53.104;8.228;2023-12-04T05:05:47;28.70;;;15.20;;
3343;SDS011;1685;53.104;8.228;2023-12-04T05:08:14;35.13;;;17.10;;
3343;SDS011;1685;53.104;8.228;2023-12-04T05:10:41;34.23;;;16.20;;
3343;SDS011;1685;53.104;8.228;2023-12-04T05:13:09;31.33;;;16.77;;
3343;SDS011;1685;53.104;8.228;2023-12-04T05:15:36;33.10;;;16.30;;
3343;SDS011;1685;53.104;8.228;2023-12-04T05:18:04;26.77;;;15.53;;
3343;SDS011;1685;53.104;8.228;2023-12-04T05:20:31;31.73;;;16.87;;
3343;SDS011;1685;53.104;8.228;2023-12-04T05:22:58;32.80;;;17.00;;
3343;SDS011;1685;53.104;8.228;2023-12-04T05:25:25;30.50;;;16.33;;
3343;SDS011;1685;53.104;8.228;2023-12-04T05:27:52;32.57;;;16.20;;
3343;SDS011;1685;53.104;8.228;2023-12-04T05:30:20;31.47;;;17.83;;
3343;SDS011;1685;53.104;8.228;2023-12-04T05:32:47;31.70;;;17.20;;
3343;SDS011;1685;53.104;8.228;2023-12-04T05:35:16;30.47;;;16.37;;
3343;SDS011;1685;53.104;8.228;2023-12-04T05:37:43;36.67;;;17.73;;
3343;SDS011;1685;53.104;8.228;2023-12-04T05:40:10;31.07;;;17.23;;
3343;SDS011;1685;53.104;8.228;2023-12-04T05:42:37;30.77;;;16.93;;
3343;SDS011;1685;53.104;8.228;2023-12-04T05:45:05;40.67;;;17.13;;
3343;SDS011;1685;53.104;8.228;2023-12-04T05:47:32;31.87;;;15.80;;
3343;SDS011;1685;53.104;8.228;2023-12-04T05:50:00;29.80;;;16.37;;
3343;SDS011;1685;53.104;8.228;2023-12-04T05:52:29;25.67;;;14.70;;
3343;SDS011;1685;53.104;8.228;2023-12-04T05:54:56;33.33;;;16.53;;
3343;SDS011;1685;53.104;8.228;2023-12-04T05:57:23;34.10;;;17.20;;
3343;SDS011;1685;53.104;8.228;2023-12-04T05:59:50;28.53;;;16.67;;
3343;SDS011;1685;53.104;8.228;2023-12-04T06:02:17;31.97;;;17.83;;
3343;SDS011;1685;53.104;8.228;2023-12-04T06:04:44;33.07;;;16.80;;
3343;SDS011;1685;53.104;8.228;2023-12-04T06:07:11;28.67;;;15.53;;
3343;SDS011;1685;53.104;8.228;2023-12-04T06:09:40;30.83;;;15.10;;
3343;SDS011;1685;53.104;8.228;2023-12-04T06:12:07;31.17;;;17.50;;
3343;SDS011;1685;53.104;8.228;2023-12-04T06:14:34;34.80;;;18.30;;
3343;SDS011;1685;53.104;8.228;2023-12-04T06:17:02;36.03;;;16.77;;
3343;SDS011;1685;53.104;8.228;2023-12-04T06:19:30;42.67;;;16.83;;
3343;SDS011;1685;53.104;8.228;2023-12-04T06:21:57;31.03;;;18.67;;
3343;SDS011;1685;53.104;8.228;2023-12-04T06:24:25;30.53;;;17.00;;
3343;SDS011;1685;53.104;8.228;2023-12-04T06:26:54;37.83;;;17.83;;
3343;SDS011;1685;53.104;8.228;2023-12-04T06:29:21;40.53;;;17.30;;
3343;SDS011;1685;53.104;8.228;2023-12-04T06:31:48;30.33;;;16.60;;
3343;SDS011;1685;53.104;8.228;2023-12-04T06:34:16;30.97;;;16.13;;
3343;SDS011;1685;53.104;8.228;2023-12-04T06:36:43;28.37;;;14.73;;
3343;SDS011;1685;53.104;8.228;2023-12-04T06:39:11;37.43;;;16.20;;
3343;SDS011;1685;53.104;8.228;2023-12-04T06:41:40;33.27;;;16.80;;
3343;SDS011;1685;53.104;8.228;2023-12-04T06:44:09;27.73;;;16.13;;
3343;SDS011;1685;53.104;8.228;2023-12-04T06:46:37;31.47;;;16.97;;
3343;SDS011;1685;53.104;8.228;2023-12-04T06:49:05;31.50;;;16.43;;
3343;SDS011;1685;53.104;8.228;2023-12-04T06:51:32;29.47;;;16.70;;
3343;SDS011;1685;53.104;8.228;2023-12-04T06:54:00;28.20;;;15.67;;
3343;SDS011;1685;53.104;8.228;2023-12-04T06:56:27;34.43;;;16.80;;
3343;SDS011;1685;53.104;8.228;2023-12-04T06:58:54;31.60;;;16.63;;
3343;SDS011;1685;53.104;8.228;2023-12-04T07:01:23;30.77;;;17.33;;
3343;SDS011;1685;53.104;8.228;2023-12-04T07:03:50;30.87;;;15.33;;
3343;SDS011;1685;53.104;8.228;2023-12-04T07:06:17;27.43;;;16.10;;
3343;SDS011;1685;53.104;8.228;2023-12-04T07:08:44;26.03;;;16.73;;
3343;SDS011;1685;53.104;8.228;2023-12-04T07:11:11;30.17;;;16.50;;
3343;SDS011;1685;53.104;8.228;2023-12-04T07:13:40;27.90;;;15.03;;
3343;SDS011;1685;53.104;8.228;2023-12-04T07:16:07;27.97;;;15.60;;
3343;SDS011;1685;53.104;8.228;2023-12-04T07:18:36;28.63;;;16.00;;
3343;SDS011;1685;53.104;8.228;2023-12-04T07:21:03;27.70;;;16.33;;
3343;SDS011;1685;53.104;8.228;2023-12-04T07:23:30;32.43;;;16.43;;
3343;SDS011;1685;53.104;8.228;2023-12-04T07:25:57;25.37;;;15.40;;
3343;SDS011;1685;53.104;8.228;2023-12-04T07:28:24;28.50;;;16.00;;
3343;SDS011;1685;53.104;8.228;2023-12-04T07:30:52;25.93;;;15.30;;
3343;SDS011;1685;53.104;8.228;2023-12-04T07:33:20;22.33;;;13.57;;
3343;SDS011;1685;53.104;8.228;2023-12-04T07:35:48;30.13;;;16.07;;
3343;SDS011;1685;53.104;8.228;2023-12-04T07:38:16;22.87;;;15.27;;
3343;SDS011;1685;53.104;8.228;2023-12-04T07:40:43;23.10;;;13.87;;
3343;SDS011;1685;53.104;8.228;2023-12-04T07:43:11;28.80;;;15.60;;
3343;SDS011;1685;53.104;8.228;2023-12-04T07:45:39;25.77;;;14.10;;
3343;SDS011;1685;53.104;8.228;2023-12-04T07:48:06;26.77;;;15.60;;
3343;SDS011;1685;53.104;8.228;2023-12-04T07:50:33;23.77;;;14.30;;
3343;SDS011;1685;53.104;8.228;2023-12-04T07:53:04;24.10;;;14.50;;
3343;SDS011;1685;53.104;8.228;2023-12-04T07:55:33;20.43;;;13.00;;
3343;SDS011;1685;53.104;8.228;2023-12-04T07:58:00;22.30;;;13.80;;
3343;SDS011;1685;53.104;8.228;2023-12-04T08:00:27;24.83;;;13.73;;
3343;SDS011;1685;53.104;8.228;2023-12-04T08:02:54;21.10;;;13.20;;
3343;SDS011;1685;53.104;8.228;2023-12-04T08:05:21;23.23;;;12.90;;
3343;SDS011;1685;53.104;8.228;2023-12-04T08:07:48;19.70;;;13.43;;
3343;SDS011;1685;53.104;8.228;2023-12-04T08:10:17;20.37;;;11.90;;
3343;SDS011;1685;53.104;8.228;2023-12-04T08:12:44;21.67;;;13.30;;
3343;SDS011;1685;53.104;8.228;2023-12-04T08:15:11;20.87;;;12.27;;
3343;SDS011;1685;53.104;8.228;2023-12-04T08:17:38;21.80;;;13.60;;
3343;SDS011;1685;53.104;8.228;2023-12-04T08:20:07;16.97;;;11.27;;
3343;SDS011;1685;53.104;8.228;2023-12-04T08:22:38;16.53;;;11.97;;
3343;SDS011;1685;53.104;8.228;2023-12-04T08:25:05;27.50;;;12.30;;
3343;SDS011;1685;53.104;8.228;2023-12-04T08:27:34;17.93;;;11.00;;
3343;SDS011;1685;53.104;8.228;2023-12-04T08:30:01;19.40;;;12.13;;
3343;SDS011;1685;53.104;8.228;2023-12-04T08:32:29;17.17;;;11.73;;
3343;SDS011;1685;53.104;8.228;2023-12-04T08:34:56;18.07;;;12.13;;
3343;SDS011;1685;53.104;8.228;2023-12-04T08:37:23;16.70;;;11.40;;
3343;SDS011;1685;53.104;8.228;2023-12-04T08:39:50;17.57;;;12.00;;
3343;SDS011;1685;53.104;8.228;2023-12-04T08:42:18;17.47;;;12.47;;
3343;SDS011;1685;53.104;8.228;2023-12-04T08:44:46;16.17;;;10.70;;
3343;SDS011;1685;53.104;8.228;2023-12-04T08:47:13;17.67;;;11.57;;
3343;SDS011;1685;53.104;8.228;2023-12-04T08:49:40;16.20;;;10.63;;
3343;SDS011;1685;53.104;8.228;2023-12-04T08:52:07;34.57;;;11.50;;
3343;SDS011;1685;53.104;8.228;2023-12-04T08:54:35;16.63;;;10.70;;
3343;SDS011;1685;53.104;8.228;2023-12-04T08:57:02;16.80;;;11.30;;
3343;SDS011;1685;53.104;8.228;2023-12-04T08:59:29;23.07;;;12.20;;
3343;SDS011;1685;53.104;8.228;2023-12-04T09:01:58;17.90;;;11.00;;
3343;SDS011;1685;53.104;8.228;2023-12-04T09:04:28;16.43;;;11.80;;
3343;SDS011;1685;53.104;8.228;2023-12-04T09:06:55;17.67;;;10.60;;
3343;SDS011;1685;53.104;8.228;2023-12-04T09:09:22;16.90;;;10.90;;
3343;SDS011;1685;53.104;8.228;2023-12-04T09:11:50;15.40;;;10.00;;
3343;SDS011;1685;53.104;8.228;2023-12-04T09:14:17;14.83;;;10.40;;
3343;SDS011;1685;53.104;8.228;2023-12-04T09:16:44;15.40;;;11.00;;
3343;SDS011;1685;53.104;8.228;2023-12-04T09:19:12;16.27;;;10.47;;
3343;SDS011;1685;53.104;8.228;2023-12-04T09:21:40;15.27;;;10.50;;
3343;SDS011;1685;53.104;8.228;2023-12-04T09:24:09;13.90;;;9.47;;
3343;SDS011;1685;53.104;8.228;2023-12-04T09:26:36;15.23;;;9.87;;
3343;SDS011;1685;53.104;8.228;2023-12-04T09:29:03;16.70;;;10.70;;
3343;SDS011;1685;53.104;8.228;2023-12-04T09:31:30;18.93;;;10.90;;
3343;SDS011;1685;53.104;8.228;2023-12-04T09:33:57;15.70;;;10.80;;
3343;SDS011;1685;53.104;8.228;2023-12-04T09:36:26;17.50;;;10.30;;
3343;SDS011;1685;53.104;8.228;2023-12-04T09:38:53;19.90;;;10.57;;
3343;SDS011;1685;53.104;8.228;2023-12-04T09:41:20;23.00;;;10.57;;
3343;SDS011;1685;53.104;8.228;2023-12-04T09:43:47;17.40;;;10.03;;
3343;SDS011;1685;53.104;8.228;2023-12-04T09:46:14;15.50;;;10.10;;
3343;SDS011;1685;53.104;8.228;2023-12-04T09:48:42;12.90;;;9.47;;
3343;SDS011;1685;53.104;8.228;2023-12-04T09:51:10;16.80;;;10.63;;
3343;SDS011;1685;53.104;8.228;2023-12-04T09:53:38;16.40;;;10.90;;
3343;SDS011;1685;53.104;8.228;2023-12-04T09:56:06;16.20;;;9.77;;
3343;SDS011;1685;53.104;8.228;2023-12-04T09:58:35;13.13;;;10.23;;
3343;SDS011;1685;53.104;8.228;2023-12-04T10:01:06;15.87;;;10.03;;
3343;SDS011;1685;53.104;8.228;2023-12-04T10:03:33;16.50;;;10.70;;
3343;SDS011;1685;53.104;8.228;2023-12-04T10:06:01;12.43;;;8.50;;
3343;SDS011;1685;53.104;8.228;2023-12-04T10:08:29;15.20;;;10.63;;
3343;SDS011;1685;53.104;8.228;2023-12-04T10:10:57;15.33;;;10.07;;
3343;SDS011;1685;53.104;8.228;2023-12-04T10:13:26;17.88;;;10.52;;
3343;SDS011;1685;53.104;8.228;2023-12-04T10:15:53;13.87;;;10.00;;
3343;SDS011;1685;53.104;8.228;2023-12-04T10:18:26;14.37;;;10.03;;
3343;SDS011;1685;53.104;8.228;2023-12-04T10:20:55;16.10;;;10.63;;
3343;SDS011;1685;53.104;8.228;2023-12-04T10:23:23;13.67;;;9.43;;
3343;SDS011;1685;53.104;8.228;2023-12-04T10:25:50;18.63;;;10.50;;
3343;SDS011;1685;53.104;8.228;2023-12-04T10:28:18;12.17;;;9.33;;
3343;SDS011;1685;53.104;8.228;2023-12-04T10:30:45;15.43;;;9.40;;
3343;SDS011;1685;53.104;8.228;2023-12-04T10:33:12;14.33;;;9.43;;
3343;SDS011;1685;53.104;8.228;2023-12-04T10:35:40;12.13;;;9.23;;
3343;SDS011;1685;53.104;8.228;2023-12-04T10:38:08;12.67;;;9.17;;
3343;SDS011;1685;53.104;8.228;2023-12-04T10:40:36;12.73;;;9.80;;
3343;SDS011;1685;53.104;8.228;2023-12-04T10:43:10;14.07;;;9.43;;
3343;SDS011;1685;53.104;8.228;2023-12-04T10:45:40;15.90;;;10.17;;
3343;SDS011;1685;53.104;8.228;2023-12-04T10:48:08;11.77;;;8.10;;
3343;SDS011;1685;53.104;8.228;2023-12-04T10:50:36;13.10;;;8.87;;
3343;SDS011;1685;53.104;8.228;2023-12-04T10:53:04;14.50;;;9.50;;
3343;SDS011;1685;53.104;8.228;2023-12-04T10:55:32;26.40;;;10.37;;
3343;SDS011;1685;53.104;8.228;2023-12-04T10:58:01;13.40;;;8.80;;
3343;SDS011;1685;53.104;8.228;2023-12-04T11:00:31;11.70;;;8.83;;
3343;SDS011;1685;53.104;8.228;2023-12-04T11:03:02;14.23;;;9.40;;
3343;SDS011;1685;53.104;8.228;2023-12-04T11:05:33;19.07;;;9.50;;
3343;SDS011;1685;53.104;8.228;2023-12-04T11:08:04;16.10;;;9.53;;
3343;SDS011;1685;53.104;8.228;2023-12-04T11:10:33;10.13;;;7.05;;
3343;SDS011;1685;53.104;8.228;2023-12-04T11:13:05;10.93;;;9.03;;
3343;SDS011;1685;53.104;8.228;2023-12-04T11:15:35;13.23;;;9.10;;
3343;SDS011;1685;53.104;8.228;2023-12-04T11:18:07;12.23;;;8.40;;
3343;SDS011;1685;53.104;8.228;2023-12-04T11:20:39;11.47;;;8.70;;
3343;SDS011;1685;53.104;8.228;2023-12-04T11:23:13;12.53;;;8.80;;
3343;SDS011;1685;53.104;8.228;2023-12-04T11:25:42;10.63;;;7.53;;
3343;SDS011;1685;53.104;8.228;2023-12-04T11:28:09;10.90;;;8.20;;
3343;SDS011;1685;53.104;8.228;2023-12-04T11:30:37;11.20;;;8.50;;
3343;SDS011;1685;53.104;8.228;2023-12-04T11:33:05;11.60;;;8.87;;
3343;SDS011;1685;53.104;8.228;2023-12-04T11:35:34;11.07;;;8.77;;
3343;SDS011;1685;53.104;8.228;2023-12-04T11:38:01;12.33;;;9.00;;
3343;SDS011;1685;53.104;8.228;2023-12-04T11:40:28;10.87;;;8.40;;
3343;SDS011;1685;53.104;8.228;2023-12-04T11:42:55;11.77;;;7.70;;
3343;SDS011;1685;53.104;8.228;2023-12-04T11:45:23;11.53;;;9.17;;
3343;SDS011;1685;53.104;8.228;2023-12-04T11:47:51;11.43;;;8.20;;
3343;SDS011;1685;53.104;8.228;2023-12-04T11:50:21;12.80;;;8.17;;
3343;SDS011;1685;53.104;8.228;2023-12-04T11:52:51;18.50;;;8.70;;
3343;SDS011;1685;53.104;8.228;2023-12-04T11:55:19;11.23;;;8.07;;
3343;SDS011;1685;53.104;8.228;2023-12-04T11:57:49;11.50;;;7.50;;
3343;SDS011;1685;53.104;8.228;2023-12-04T12:00:20;13.47;;;9.47;;
3343;SDS011;1685;53.104;8.228;2023-12-04T12:03:02;12.13;;;8.67;;
3343;SDS011;1685;53.104;8.228;2023-12-04T12:05:31;13.70;;;8.63;;
3343;SDS011;1685;53.104;8.228;2023-12-04T12:08:02;10.77;;;7.87;;
3343;SDS011;1685;53.104;8.228;2023-12-04T12:10:29;12.67;;;8.27;;
3343;SDS011;1685;53.104;8.228;2023-12-04T12:12:56;11.80;;;8.13;;
3343;SDS011;1685;53.104;8.228;2023-12-04T12:15:24;13.43;;;9.63;;
3343;SDS011;1685;53.104;8.228;2023-12-04T12:17:51;10.60;;;8.03;;
3343;SDS011;1685;53.104;8.228;2023-12-04T12:20:18;11.57;;;8.13;;
3343;SDS011;1685;53.104;8.228;2023-12-04T12:22:47;13.07;;;9.13;;
3343;SDS011;1685;53.104;8.228;2023-12-04T12:25:16;10.27;;;7.70;;
3343;SDS011;1685;53.104;8.228;2023-12-04T12:27:44;10.07;;;7.43;;
3343;SDS011;1685;53.104;8.228;2023-12-04T12:30:11;11.80;;;7.67;;
3343;SDS011;1685;53.104;8.228;2023-12-04T12:32:39;10.37;;;7.80;;
3343;SDS011;1685;53.104;8.228;2023-12-04T12:35:06;11.10;;;8.10;;
3343;SDS011;1685;53.104;8.228;2023-12-04T12:37:34;11.77;;;8.63;;
3343;SDS011;1685;53.104;8.228;2023-12-04T12:40:01;11.07;;;7.80;;
3343;SDS011;1685;53.104;8.228;2023-12-04T12:42:31;10.63;;;7.83;;
3343;SDS011;1685;53.104;8.228;2023-12-04T12:44:59;9.60;;;7.80;;
3343;SDS011;1685;53.104;8.228;2023-12-04T12:47:27;12.77;;;8.43;;
3343;SDS011;1685;53.104;8.228;2023-12-04T12:49:56;8.67;;;7.17;;
3343;SDS011;1685;53.104;8.228;2023-12-04T12:52:23;10.53;;;8.77;;
3343;SDS011;1685;53.104;8.228;2023-12-04T12:54:50;11.07;;;7.90;;
3343;SDS011;1685;53.104;8.228;2023-12-04T12:57:18;10.77;;;7.90;;
3343;SDS011;1685;53.104;8.228;2023-12-04T12:59:47;10.30;;;7.20;;
3343;SDS011;1685;53.104;8.228;2023-12-04T13:02:15;10.17;;;7.70;;
3343;SDS011;1685;53.104;8.228;2023-12-04T13:04:42;9.30;;;7.47;;
3343;SDS011;1685;53.104;8.228;2023-12-04T13:07:10;11.13;;;7.63;;
3343;SDS011;1685;53.104;8.228;2023-12-04T13:09:37;10.03;;;7.70;;
3343;SDS011;1685;53.104;8.228;2023-12-04T13:12:05;10.07;;;7.70;;
3343;SDS011;1685;53.104;8.228;2023-12-04T13:14:33;10.37;;;7.80;;
3343;SDS011;1685;53.104;8.228;2023-12-04T13:17:02;8.97;;;6.77;;
3343;SDS011;1685;53.104;8.228;2023-12-04T13:19:29;9.60;;;6.87;;
3343;SDS011;1685;53.104;8.228;2023-12-04T13:21:59;8.73;;;6.63;;
3343;SDS011;1685;53.104;8.228;2023-12-04T13:24:26;14.43;;;8.50;;
3343;SDS011;1685;53.104;8.228;2023-12-04T13:26:53;9.50;;;7.80;;
3343;SDS011;1685;53.104;8.228;2023-12-04T13:29:21;9.40;;;7.07;;
3343;SDS011;1685;53.104;8.228;2023-12-04T13:31:48;10.00;;;7.53;;
3343;SDS011;1685;53.104;8.228;2023-12-04T13:34:17;10.27;;;7.87;;
3343;SDS011;1685;53.104;8.228;2023-12-04T13:36:44;8.93;;;7.00;;
3343;SDS011;1685;53.104;8.228;2023-12-04T13:39:11;10.20;;;7.40;;
3343;SDS011;1685;53.104;8.228;2023-12-04T13:41:45;9.77;;;7.80;;
3343;SDS011;1685;53.104;8.228;2023-12-04T13:44:29;9.90;;;7.00;;
3343;SDS011;1685;53.104;8.228;2023-12-04T13:46:58;13.60;;;8.77;;
3343;SDS011;1685;53.104;8.228;2023-12-04T13:49:26;10.47;;;6.97;;
3343;SDS011;1685;53.104;8.228;2023-12-04T13:51:53;11.47;;;7.97;;
3343;SDS011;1685;53.104;8.228;2023-12-04T13:54:21;12.97;;;7.40;;
3343;SDS011;1685;53.104;8.228;2023-12-04T13:56:59;10.80;;;7.90;;
3343;SDS011;1685;53.104;8.228;2023-12-04T13:59:28;13.00;;;9.23;;
3343;SDS011;1685;53.104;8.228;2023-12-04T14:01:57;14.30;;;9.60;;
3343;SDS011;1685;53.104;8.228;2023-12-04T14:04:27;13.20;;;8.30;;
3343;SDS011;1685;53.104;8.228;2023-12-04T14:06:54;13.00;;;10.20;;
3343;SDS011;1685;53.104;8.228;2023-12-04T14:09:21;12.40;;;9.10;;
3343;SDS011;1685;53.104;8.228;2023-12-04T14:11:48;12.33;;;7.87;;
3343;SDS011;1685;53.104;8.228;2023-12-04T14:14:15;12.77;;;9.17;;
3343;SDS011;1685;53.104;8.228;2023-12-04T14:16:43;9.77;;;7.37;;
3343;SDS011;1685;53.104;8.228;2023-12-04T14:19:12;10.60;;;8.47;;
3343;SDS011;1685;53.104;8.228;2023-12-04T14:21:43;10.90;;;8.33;;
3343;SDS011;1685;53.104;8.228;2023-12-04T14:24:10;13.90;;;8.10;;
3343;SDS011;1685;53.104;8.228;2023-12-04T14:26:37;12.60;;;8.90;;
3343;SDS011;1685;53.104;8.228;2023-12-04T14:29:04;10.63;;;7.60;;
3343;SDS011;1685;53.104;8.228;2023-12-04T14:31:33;10.23;;;7.70;;
3343;SDS011;1685;53.104;8.228;2023-12-04T14:34:00;11.10;;;8.57;;
3343;SDS011;1685;53.104;8.228;2023-12-04T14:36:28;14.03;;;9.13;;
3343;SDS011;1685;53.104;8.228;2023-12-04T14:38:58;12.27;;;8.47;;
3343;SDS011;1685;53.104;8.228;2023-12-04T14:41:25;14.70;;;8.00;;
3343;SDS011;1685;53.104;8.228;2023-12-04T14:43:52;10.13;;;7.57;;
3343;SDS011;1685;53.104;8.228;2023-12-04T14:46:20;11.60;;;8.03;;
3343;SDS011;1685;53.104;8.228;2023-12-04T14:48:47;11.03;;;8.23;;
3343;SDS011;1685;53.104;8.228;2023-12-04T14:51:14;9.80;;;7.63;;
3343;SDS011;1685;53.104;8.228;2023-12-04T14:53:41;13.07;;;9.00;;
3343;SDS011;1685;53.104;8.228;2023-12-04T14:56:17;12.50;;;8.90;;